Time;durP1;ratioP1;P1;durP2;ratioP2;P2;SDS_P1;SDS_P2;PMS_P1;PMS_P2;Temp;Humidity;BMP_temperature;BMP_pressure;BME280_temperature;BME280_humidity;BME280_pressure;Samples;Min_cycle;Max_cycle;Signal;HPM_P1;HPM_P2
2023/03/01 00:01:21;;;;;;;1.95;0.70;;;;;;;-5.74;62.79;98519.00;7351155;19;20022;-71
2023/03/01 00:03:45;;;;;;;3.45;1.48;;;;;;;-5.76;62.92;98515.63;7350492;19;20029;-70
2023/03/01 00:06:10;;;;;;;0.88;0.68;;;;;;;-5.71;63.67;98523.28;7347483;19;20022;-73
2023/03/01 00:08:36;;;;;;;2.47;0.98;;;;;;;-5.74;63.20;98515.56;7349710;19;20025;-71
2023/03/01 00:11:05;;;;;;;0.45;0.30;;;;;;;-5.66;65.00;98517.09;7348080;19;20113;-70
2023/03/01 00:13:29;;;;;;;0.80;0.50;;;;;;;-5.74;63.33;98510.38;7345168;19;20025;-68
2023/03/01 00:15:54;;;;;;;1.90;1.10;;;;;;;-5.82;62.91;98509.72;7350625;19;20018;-71
2023/03/01 00:18:18;;;;;;;1.67;0.90;;;;;;;-5.77;64.63;98518.25;7346640;19;20521;-74
2023/03/01 00:20:50;;;;;;;2.70;0.80;;;;;;;-5.79;63.32;98510.50;7348040;19;20038;-74
2023/03/01 00:23:15;;;;;;;0.30;0.30;;;;;;;-5.79;63.83;98501.84;7343499;19;20014;-70
2023/03/01 00:25:43;;;;;;;1.63;0.70;;;;;;;-5.87;63.73;98496.84;7347117;19;20040;-71
2023/03/01 00:28:07;;;;;;;1.17;0.60;;;;;;;-5.82;64.19;98505.38;7348318;19;20011;-69
2023/03/01 00:30:32;;;;;;;1.42;0.80;;;;;;;-5.81;65.00;98506.22;7346038;19;20056;-71
2023/03/01 00:32:57;;;;;;;3.67;0.98;;;;;;;-5.89;63.90;98504.72;7344495;19;20022;-73
2023/03/01 00:35:22;;;;;;;0.85;0.50;;;;;;;-5.86;63.94;98504.56;7352363;19;20089;-77
2023/03/01 00:37:47;;;;;;;1.70;0.88;;;;;;;-5.86;63.84;98506.31;7353179;19;20014;-64
2023/03/01 00:40:12;;;;;;;2.53;1.17;;;;;;;-5.91;63.62;98503.88;7343671;19;20027;-67
2023/03/01 00:42:37;;;;;;;1.25;0.77;;;;;;;-5.96;63.37;98507.47;7346533;19;20028;-64
2023/03/01 00:45:02;;;;;;;2.40;0.60;;;;;;;-5.92;64.27;98494.41;7345811;19;20022;-66
2023/03/01 00:47:29;;;;;;;1.92;0.73;;;;;;;-5.94;63.46;98505.69;7347630;19;20022;-66
2023/03/01 00:49:53;;;;;;;1.70;0.98;;;;;;;-5.90;64.62;98495.22;7344689;19;20030;-65
2023/03/01 00:52:18;;;;;;;1.23;0.52;;;;;;;-5.88;65.17;98511.56;7346653;19;20031;-66
2023/03/01 00:54:43;;;;;;;0.85;0.40;;;;;;;-5.99;63.64;98497.19;7345335;19;20047;-64
2023/03/01 00:57:07;;;;;;;2.33;0.82;;;;;;;-5.99;63.51;98497.19;7345653;19;20448;-66
2023/03/01 00:59:32;;;;;;;1.55;0.60;;;;;;;-6.04;63.30;98494.69;7343316;19;20030;-68
2023/03/01 01:01:58;;;;;;;1.48;0.77;;;;;;;-6.08;63.31;98497.38;7345171;19;20022;-65
2023/03/01 01:04:23;;;;;;;2.25;1.00;;;;;;;-6.02;63.75;98492.91;7345225;19;19999;-65
2023/03/01 01:06:48;;;;;;;1.40;0.55;;;;;;;-6.09;63.29;98490.47;7344279;19;20022;-65
2023/03/01 01:09:19;;;;;;;3.05;1.83;;;;;;;-6.04;63.64;98494.69;7345974;19;20037;-65
2023/03/01 01:11:48;;;;;;;1.73;0.93;;;;;;;-6.06;63.71;98487.81;7347101;19;20006;-68
2023/03/01 01:14:13;;;;;;;2.30;0.85;;;;;;;-6.04;64.08;98496.44;7344042;19;20074;-65
2023/03/01 01:16:38;;;;;;;1.90;0.68;;;;;;;-6.07;64.43;98501.69;7344274;19;20465;-65
2023/03/01 01:19:03;;;;;;;1.20;0.90;;;;;;;-6.10;64.15;98486.22;7344845;19;20513;-67
2023/03/01 01:21:29;;;;;;;2.42;0.68;;;;;;;-6.11;64.11;98497.47;7345066;19;20405;-66
2023/03/01 01:23:55;;;;;;;1.75;0.90;;;;;;;-6.14;64.18;98492.34;7342907;19;20018;-66
2023/03/01 01:26:21;;;;;;;4.47;2.35;;;;;;;-6.18;64.30;98491.56;7344082;19;20018;-66
2023/03/01 01:28:48;;;;;;;4.18;1.42;;;;;;;-6.17;64.33;98498.44;7342753;19;20011;-66
2023/03/01 01:31:14;;;;;;;1.95;0.60;;;;;;;-6.15;64.96;98537.31;7343576;19;20370;-66
2023/03/01 01:33:38;;;;;;;3.45;0.98;;;;;;;-6.20;64.54;98497.66;7342633;19;20038;-65
2023/03/01 01:36:05;;;;;;;0.52;0.50;;;;;;;-6.24;64.65;98497.75;7342136;19;20011;-66
2023/03/01 01:38:30;;;;;;;1.63;0.63;;;;;;;-6.22;64.91;98505.50;7342513;19;20014;-66
2023/03/01 01:40:55;;;;;;;1.60;0.75;;;;;;;-6.18;65.18;98503.66;7343929;19;20172;-69
2023/03/01 01:43:25;;;;;;;2.10;1.00;;;;;;;-6.22;65.02;98509.81;7355922;19;20034;-70
2023/03/01 01:45:51;;;;;;;1.05;0.60;;;;;;;-6.27;65.18;98503.00;7357787;19;20010;-69
2023/03/01 01:48:22;;;;;;;2.63;0.82;;;;;;;-6.32;65.40;98504.81;7356392;19;20050;-73
2023/03/01 01:50:54;;;;;;;1.00;0.63;;;;;;;-6.21;65.98;98493.38;7359617;19;20011;-69
2023/03/01 01:53:19;;;;;;;1.27;0.57;;;;;;;-6.17;66.59;98502.78;7355087;19;20373;-66
2023/03/01 01:55:52;;;;;;;0.90;0.88;;;;;;;-6.25;66.37;98501.22;7357399;19;20027;-66
2023/03/01 01:58:21;;;;;;;0.43;0.43;;;;;;;-6.25;66.63;98500.38;7356201;19;20469;-66
2023/03/01 02:00:47;;;;;;;3.38;0.82;;;;;;;-6.25;67.05;98510.75;7358033;19;20045;-66
2023/03/01 02:03:24;;;;;;;2.50;0.63;;;;;;;-6.35;66.27;98499.72;7365227;19;20010;-71
2023/03/01 02:06:03;;;;;;;4.75;1.20;;;;;;;-6.25;67.57;98501.22;7360811;19;20018;-66
2023/03/01 02:08:31;;;;;;;4.75;1.38;;;;;;;-6.34;66.84;98503.19;7359687;19;20476;-69
2023/03/01 02:10:59;;;;;;;2.67;1.45;;;;;;;-6.34;67.33;98487.63;7357517;19;20122;-69
2023/03/01 02:13:24;;;;;;;1.73;0.60;;;;;;;-6.39;66.84;98490.31;7356789;19;20018;-68
2023/03/01 02:15:49;;;;;;;6.20;1.83;;;;;;;-6.42;66.96;98490.34;7358107;19;20015;-68
2023/03/01 02:18:18;;;;;;;4.57;1.45;;;;;;;-6.42;67.41;98494.69;7357285;19;20793;-70
2023/03/01 02:20:52;;;;;;;4.22;1.17;;;;;;;-6.38;67.78;98492.00;7357399;19;20082;-72
2023/03/01 02:23:18;;;;;;;0.57;0.47;;;;;;;-6.34;68.50;98498.00;7362640;19;20026;-69
2023/03/01 02:25:56;;;;;;;1.38;0.70;;;;;;;-6.38;68.37;98497.19;7359244;19;20980;-72
2023/03/01 02:28:40;;;;;;;5.68;1.88;;;;;;;-6.46;68.28;98491.34;7357946;19;20006;-72
2023/03/01 02:33:51;;;;;;;2.72;0.93;;;;;;;-6.45;68.66;98503.41;7358812;19;20258;-67
2023/03/01 02:36:19;;;;;;;2.53;1.23;;;;;;;-6.44;68.68;98506.84;7357932;19;20017;-68
2023/03/01 02:38:46;;;;;;;3.08;1.65;;;;;;;-6.53;68.54;98512.22;7358129;19;20018;-67
2023/03/01 02:41:14;;;;;;;2.58;1.25;;;;;;;-6.52;68.97;98512.19;7355877;19;20015;-71
2023/03/01 02:43:39;;;;;;;3.42;1.52;;;;;;;-6.50;69.31;98510.44;7355491;19;20010;-68
2023/03/01 02:46:13;;;;;;;3.67;1.67;;;;;;;-6.54;69.06;98508.78;7357051;19;20017;-69
2023/03/01 02:48:53;;;;;;;3.92;1.48;;;;;;;-6.51;69.29;98508.72;7356467;19;20011;-72
2023/03/01 02:51:41;;;;;;;3.30;1.80;;;;;;;-6.44;69.94;98510.31;7356597;19;20014;-70
2023/03/01 02:54:38;;;;;;;4.95;2.53;;;;;;;-6.61;69.32;98512.38;7353146;19;20549;-70
2023/03/01 02:57:03;;;;;;;2.58;1.63;;;;;;;-6.59;69.52;98513.22;7348334;19;20398;-68
2023/03/01 02:59:38;;;;;;;2.72;1.63;;;;;;;-6.59;69.53;98513.22;7348940;19;20010;-68
2023/03/01 03:02:05;;;;;;;;;;;;;;;-6.53;69.78;98515.66;7350131;19;20462;-66
2023/03/01 03:04:29;;;;;;;3.35;1.35;;;;;;;-6.58;69.96;98507.16;7349651;19;19922;-68
2023/03/01 03:06:54;;;;;;;1.63;1.10;;;;;;;-6.63;69.86;98519.34;7347986;19;20002;-72
2023/03/01 03:09:19;;;;;;;3.80;1.25;;;;;;;-6.68;69.68;98518.59;7347591;19;20073;-67
2023/03/01 03:11:45;;;;;;;2.28;1.20;;;;;;;-6.73;69.84;98523.88;7346741;19;20011;-66
2023/03/01 03:14:12;;;;;;;4.10;1.27;;;;;;;-6.73;69.82;98533.38;7347551;19;20450;-66
2023/03/01 03:16:50;;;;;;;6.38;1.73;;;;;;;-6.74;70.09;98529.06;7348318;19;20098;-73
2023/03/01 03:19:18;;;;;;;2.15;1.00;;;;;;;-6.77;70.00;98526.56;7346906;19;20074;-71
2023/03/01 03:21:43;;;;;;;2.42;0.80;;;;;;;-6.77;70.08;98527.38;7347976;19;20413;-79
2023/03/01 03:24:08;;;;;;;7.45;1.42;;;;;;;-6.77;70.29;98526.56;7349432;19;20014;-70
2023/03/01 03:26:36;;;;;;;3.00;1.55;;;;;;;-6.82;70.23;98539.59;7349009;19;20084;-71
2023/03/01 03:29:01;;;;;;;5.40;0.98;;;;;;;-6.84;70.08;98524.97;7348870;19;20006;-74
2023/03/01 03:31:27;;;;;;;4.18;1.02;;;;;;;-6.86;70.31;98522.41;7348734;19;20030;-70
2023/03/01 03:33:51;;;;;;;0.73;0.73;;;;;;;-6.87;70.68;98535.38;7348079;19;20009;-72
2023/03/01 03:36:18;;;;;;;3.63;1.10;;;;;;;-6.87;70.87;98532.78;7347288;19;20019;-71
2023/03/01 03:38:43;;;;;;;1.42;1.10;;;;;;;-6.90;70.86;98541.50;7349199;19;20014;-73
2023/03/01 03:41:08;;;;;;;3.42;0.90;;;;;;;-6.88;70.94;98538.88;7349830;19;20006;-73
2023/03/01 03:43:35;;;;;;;0.60;0.60;;;;;;;-6.85;71.20;98543.97;7348092;19;20019;-73
2023/03/01 03:46:05;;;;;;;2.08;0.82;;;;;;;-6.89;71.29;98537.16;7349853;19;20031;-73
2023/03/01 03:48:30;;;;;;;2.65;1.38;;;;;;;-6.93;71.15;98544.13;7348920;19;20333;-74
2023/03/01 03:50:56;;;;;;;3.03;1.33;;;;;;;-6.98;71.15;98546.81;7347380;19;20355;-73
2023/03/01 03:53:23;;;;;;;1.90;0.77;;;;;;;-6.92;71.49;98545.84;7344210;19;20017;-74
2023/03/01 03:55:51;;;;;;;4.30;1.30;;;;;;;-7.04;71.16;98544.34;7349613;19;20010;-74
2023/03/01 03:58:19;;;;;;;6.32;2.20;;;;;;;-7.04;71.21;98538.31;7346378;19;20010;-74
2023/03/01 04:00:44;;;;;;;2.72;1.52;;;;;;;-6.99;71.36;98545.09;7346022;19;20010;-75
2023/03/01 04:03:11;;;;;;;7.70;1.60;;;;;;;-7.00;71.22;98545.97;7348030;19;20390;-74
2023/03/01 04:05:36;;;;;;;3.63;1.85;;;;;;;-7.04;71.31;98539.16;7345213;19;20047;-74
2023/03/01 04:08:01;;;;;;;5.32;2.03;;;;;;;-7.01;71.66;98541.72;7346202;19;20095;-74
2023/03/01 04:10:26;;;;;;;2.70;1.48;;;;;;;-7.04;71.30;98541.75;7346048;19;20015;-73
2023/03/01 04:12:50;;;;;;;1.48;0.93;;;;;;;-7.04;71.47;98549.53;7346863;19;20006;-74
2023/03/01 04:15:15;;;;;;;3.10;1.30;;;;;;;-7.08;71.49;98544.41;7345443;19;20803;-74
2023/03/01 04:17:41;;;;;;;6.75;2.00;;;;;;;-6.99;71.24;98560.63;7347171;19;20014;-74
2023/03/01 04:20:06;;;;;;;5.40;1.25;;;;;;;-6.93;71.45;98553.66;7345252;19;20030;-73
2023/03/01 04:22:31;;;;;;;2.90;1.77;;;;;;;-6.93;71.17;98556.22;7347225;19;20313;-76
2023/03/01 04:24:56;;;;;;;6.03;1.10;;;;;;;-6.87;71.29;98553.50;7348525;19;20011;-75
2023/03/01 04:27:21;;;;;;;8.73;2.65;;;;;;;-6.92;71.04;98552.75;7354111;19;20011;-75
2023/03/01 04:29:45;;;;;;;1.27;0.60;;;;;;;-6.85;71.20;98562.97;7347469;19;20006;-75
2023/03/01 04:32:10;;;;;;;1.05;0.90;;;;;;;-6.81;71.04;98566.38;7346784;19;20473;-75
2023/03/01 04:34:35;;;;;;;1.45;1.25;;;;;;;-6.79;71.23;98562.88;7349257;19;20023;-75
2023/03/01 04:36:59;;;;;;;4.50;1.23;;;;;;;-6.72;71.19;98567.03;7353198;19;20321;-77
2023/03/01 04:39:24;;;;;;;3.22;1.33;;;;;;;-6.68;71.53;98563.50;7359534;19;20447;-78
2023/03/01 04:41:48;;;;;;;3.72;2.30;;;;;;;-6.71;70.72;98557.53;7354630;19;20014;-79
2023/03/01 04:44:13;;;;;;;3.90;1.55;;;;;;;-6.55;71.41;98563.25;7360541;19;20016;-77
2023/03/01 04:46:38;;;;;;;8.63;2.10;;;;;;;-6.36;71.51;98567.19;7355874;19;20747;-70
2023/03/01 04:49:03;;;;;;;1.80;1.13;;;;;;;-6.13;70.82;98566.69;7353989;19;20037;-70
2023/03/01 04:51:28;;;;;;;4.25;1.48;;;;;;;-5.90;70.29;98569.63;7348293;19;20011;-72
2023/03/01 04:53:53;;;;;;;2.08;1.27;;;;;;;-5.71;70.55;98570.84;7348071;19;20021;-70
2023/03/01 04:56:18;;;;;;;1.45;1.23;;;;;;;-5.59;69.18;98574.91;7346216;19;20010;-74
2023/03/01 04:58:42;;;;;;;1.70;1.30;;;;;;;-5.52;68.79;98566.06;7342314;19;20002;-75
2023/03/01 05:01:15;;;;;;;3.42;1.48;;;;;;;-5.39;68.38;98574.41;7345425;19;20002;-76
2023/03/01 05:03:39;;;;;;;6.55;2.58;;;;;;;-5.44;67.25;98571.94;7345148;19;20011;-72
2023/03/01 05:06:04;;;;;;;2.55;1.75;;;;;;;-5.32;67.59;98579.44;7344308;19;20013;-73
2023/03/01 05:08:29;;;;;;;6.15;2.72;;;;;;;-5.19;67.92;98579.97;7346359;19;20080;-71
2023/03/01 05:10:54;;;;;;;3.70;3.00;;;;;;;-5.03;68.12;98577.81;7343166;19;20030;-72
2023/03/01 05:13:20;;;;;;;9.20;3.88;;;;;;;-4.84;68.00;98574.69;7345473;19;20002;-73
2023/03/01 05:15:45;;;;;;;8.52;4.50;;;;;;;-4.79;65.78;98575.44;7343344;19;20489;-71
2023/03/01 05:18:11;;;;;;;8.07;4.43;;;;;;;-4.73;65.08;98581.34;7345473;19;20412;-71
2023/03/01 05:20:36;;;;;;;8.93;4.25;;;;;;;-4.66;64.46;98577.69;7344388;19;20014;-71
2023/03/01 05:23:04;;;;;;;5.32;3.30;;;;;;;-4.45;64.91;98584.91;7345697;19;20011;-71
2023/03/01 05:25:32;;;;;;;5.65;3.22;;;;;;;-4.31;64.55;98585.38;7347495;19;20346;-70
2023/03/01 05:27:57;;;;;;;4.80;2.88;;;;;;;-4.21;64.00;98588.56;7346623;19;20010;-71
2023/03/01 05:30:22;;;;;;;4.72;2.67;;;;;;;-4.22;63.57;98585.09;7343929;19;20017;-71
2023/03/01 05:32:49;;;;;;;9.30;2.85;;;;;;;-4.21;62.88;98591.16;7344815;19;20028;-72
2023/03/01 05:35:16;;;;;;;5.95;3.05;;;;;;;-4.14;63.39;98598.72;7342663;19;20018;-71
2023/03/01 05:37:42;;;;;;;7.03;3.35;;;;;;;-4.07;63.66;98592.47;7342824;19;20034;-71
2023/03/01 05:40:15;;;;;;;3.92;2.15;;;;;;;-3.94;62.88;98597.28;7341877;19;20465;-70
2023/03/01 05:42:39;;;;;;;6.95;2.67;;;;;;;-3.84;62.38;98598.72;7345340;19;20014;-76
2023/03/01 05:45:04;;;;;;;8.68;2.60;;;;;;;-3.72;62.18;98604.38;7345291;19;20011;-74
2023/03/01 05:47:33;;;;;;;4.97;2.40;;;;;;;-3.55;62.90;98609.09;7347930;19;20510;-74
2023/03/01 05:49:58;;;;;;;4.78;2.38;;;;;;;-3.41;62.27;98613.88;7345563;19;20368;-73
2023/03/01 05:52:23;;;;;;;4.55;2.42;;;;;;;-3.42;60.22;98606.94;7346683;19;20024;-75
2023/03/01 05:54:47;;;;;;;4.00;2.33;;;;;;;-3.33;60.45;98602.28;7346859;19;20006;-76
2023/03/01 05:57:12;;;;;;;6.63;2.72;;;;;;;-3.36;59.71;98614.56;7347118;19;20002;-73
2023/03/01 05:59:36;;;;;;;5.43;2.67;;;;;;;-3.19;60.85;98614.03;7351101;19;20046;-73
2023/03/01 06:02:01;;;;;;;2.72;1.83;;;;;;;-3.02;59.89;98612.56;7355927;19;20019;-73
2023/03/01 06:04:26;;;;;;;3.08;1.95;;;;;;;-2.87;59.42;98610.34;7348958;19;20046;-75
2023/03/01 06:06:50;;;;;;;4.90;2.65;;;;;;;-2.81;58.72;98605.75;7347055;19;20018;-76
2023/03/01 06:09:15;;;;;;;6.10;2.15;;;;;;;-2.57;60.51;98607.50;7347635;19;20015;-72
2023/03/01 06:11:40;;;;;;;3.35;2.15;;;;;;;-2.56;57.83;98605.75;7364323;19;20016;-77
2023/03/01 06:14:07;;;;;;;4.85;2.70;;;;;;;-2.45;57.91;98603.63;7361762;19;20010;-74
2023/03/01 06:16:32;;;;;;;6.28;2.08;;;;;;;-2.22;57.43;98606.25;7357808;19;20015;-80
2023/03/01 06:18:56;;;;;;;4.68;2.35;;;;;;;-1.98;56.32;98621.91;7360389;19;20017;-77
2023/03/01 06:21:21;;;;;;;4.20;2.53;;;;;;;-1.74;56.70;98623.59;7369970;19;20020;-78
2023/03/01 06:23:46;;;;;;;3.42;1.92;;;;;;;-1.57;57.44;98623.78;7373723;19;20006;-78
2023/03/01 06:26:10;;;;;;;4.82;1.77;;;;;;;-1.44;55.33;98634.63;7368857;19;20050;-81
2023/03/01 06:28:35;;;;;;;5.18;2.65;;;;;;;-1.46;54.28;98620.75;7367891;19;20022;-75
2023/03/01 06:31:00;;;;;;;2.17;1.60;;;;;;;-0.34;55.39;98628.31;7376755;19;20015;-75
2023/03/01 06:33:24;;;;;;;5.18;1.90;;;;;;;1.09;50.31;98611.94;7372243;19;20047;-77
2023/03/01 06:35:50;;;;;;;4.30;2.40;;;;;;;1.96;51.57;98617.97;7377317;19;20033;-78
2023/03/01 06:38:14;;;;;;;3.38;2.08;;;;;;;2.77;47.58;98608.25;7373150;19;20011;-77
2023/03/01 06:40:39;;;;;;;9.70;2.10;;;;;;;3.35;46.28;98607.53;7374640;19;20026;-79
2023/03/01 06:43:04;;;;;;;5.18;2.30;;;;;;;3.75;44.67;98606.00;7374777;19;20006;-78
2023/03/01 06:45:28;;;;;;;4.60;2.20;;;;;;;3.46;42.83;98613.03;7380099;19;20020;-78
2023/03/01 06:48:01;;;;;;;5.53;2.58;;;;;;;3.01;43.77;98617.41;7377156;19;20053;-78
2023/03/01 06:50:25;;;;;;;4.03;2.88;;;;;;;2.68;43.83;98614.91;7377665;19;20007;-78
2023/03/01 06:52:55;;;;;;;6.97;2.53;;;;;;;2.68;44.04;98614.91;7378980;19;20019;-79
2023/03/01 06:55:20;;;;;;;4.85;2.17;;;;;;;2.55;44.59;98609.47;7364163;19;20028;-76
2023/03/01 06:57:44;;;;;;;5.07;2.72;;;;;;;2.65;44.87;98617.69;7354323;19;20018;-77
2023/03/01 07:00:10;;;;;;;4.63;2.42;;;;;;;2.63;44.56;98616.06;7354159;19;20033;-78
2023/03/01 07:02:34;;;;;;;9.82;3.00;;;;;;;2.80;44.40;98611.56;7352477;19;20014;-73
2023/03/01 07:04:59;;;;;;;7.47;2.05;;;;;;;3.03;44.52;98612.91;7352068;19;20010;-74
2023/03/01 07:07:24;;;;;;;5.10;3.30;;;;;;;3.20;43.71;98606.66;7349828;19;20021;-74
2023/03/01 07:09:49;;;;;;;6.07;3.10;;;;;;;3.04;44.05;98622.50;7352710;19;20010;-76
2023/03/01 07:12:14;;;;;;;4.47;2.50;;;;;;;2.93;43.90;98624.91;7349298;19;20027;-74
2023/03/01 07:14:38;;;;;;;4.25;2.00;;;;;;;3.02;45.10;98620.88;7351158;19;20014;-74
2023/03/01 07:17:03;;;;;;;7.10;3.00;;;;;;;2.83;44.00;98627.16;7349877;19;20115;-74
2023/03/01 07:19:28;;;;;;;2.70;1.80;;;;;;;2.29;44.24;98633.69;7351519;19;20003;-75
2023/03/01 07:21:52;;;;;;;5.25;2.85;;;;;;;1.95;44.45;98633.81;7348268;19;20010;-75
2023/03/01 07:24:17;;;;;;;5.80;2.83;;;;;;;1.80;45.25;98643.34;7351817;19;20006;-75
2023/03/01 07:26:42;;;;;;;7.45;2.83;;;;;;;1.49;46.16;98632.69;7348593;19;20018;-75
2023/03/01 07:29:07;;;;;;;3.42;2.13;;;;;;;1.34;47.00;98643.06;7351386;19;20082;-74
2023/03/01 07:31:33;;;;;;;4.30;2.25;;;;;;;1.39;48.05;98642.81;7349484;19;20086;-74
2023/03/01 07:33:57;;;;;;;5.93;2.40;;;;;;;1.09;47.01;98643.44;7350075;19;20045;-75
2023/03/01 07:36:22;;;;;;;3.55;2.13;;;;;;;1.58;47.71;98640.97;7349522;19;20003;-76
2023/03/01 07:38:47;;;;;;;4.63;2.20;;;;;;;3.34;44.42;98640.09;7350801;19;20429;-75
2023/03/01 07:41:12;;;;;;;5.05;2.50;;;;;;;5.76;39.33;98626.41;7352358;19;20363;-77
2023/03/01 07:43:36;;;;;;;2.53;2.20;;;;;;;8.01;37.22;98628.50;7349262;19;20007;-76
2023/03/01 07:46:02;;;;;;;4.60;2.22;;;;;;;9.69;34.02;98628.28;7350033;19;20019;-75
2023/03/01 07:48:27;;;;;;;3.25;2.10;;;;;;;10.53;31.34;98628.06;7350545;19;20331;-76
2023/03/01 07:50:52;;;;;;;5.50;1.83;;;;;;;11.53;29.95;98636.00;7348041;19;20350;-76
2023/03/01 07:53:16;;;;;;;2.50;2.30;;;;;;;12.04;29.15;98629.56;7347547;19;20394;-77
2023/03/01 07:55:41;;;;;;;2.83;1.58;;;;;;;12.24;27.96;98634.72;7349436;19;20014;-77
2023/03/01 07:58:05;;;;;;;5.88;2.95;;;;;;;12.83;27.62;98638.00;7349436;19;20342;-76
2023/03/01 08:00:30;;;;;;;5.00;2.15;;;;;;;13.92;27.07;98632.47;7356194;19;20022;-76
2023/03/01 08:02:58;;;;;;;6.97;2.78;;;;;;;14.82;26.23;98633.91;7350564;19;20013;-75
2023/03/01 08:05:22;;;;;;;9.82;3.17;;;;;;;15.51;24.78;98630.94;7353175;19;20097;-78
2023/03/01 08:07:47;;;;;;;4.97;2.42;;;;;;;16.47;25.01;98624.91;7351801;19;20011;-75
2023/03/01 08:10:12;;;;;;;4.38;3.10;;;;;;;16.99;23.51;98622.56;7350418;19;20014;-74
2023/03/01 08:12:37;;;;;;;8.40;3.15;;;;;;;18.03;23.55;98617.53;7345438;19;20014;-74
2023/03/01 08:15:02;;;;;;;5.07;3.03;;;;;;;17.93;21.60;98616.09;7349646;19;20007;-74
2023/03/01 08:17:28;;;;;;;4.70;1.80;;;;;;;18.91;22.73;98611.41;7348106;19;20012;-74
2023/03/01 08:19:52;;;;;;;4.80;2.67;;;;;;;18.42;21.78;98622.69;7347282;19;20018;-73
2023/03/01 08:22:17;;;;;;;4.55;2.80;;;;;;;18.12;21.94;98618.28;7345311;19;20017;-71
2023/03/01 08:24:42;;;;;;;3.92;2.25;;;;;;;19.08;22.21;98626.34;7346716;19;20518;-72
2023/03/01 08:27:06;;;;;;;5.88;2.97;;;;;;;19.58;21.18;98630.94;7352846;19;20035;-75
2023/03/01 08:29:32;;;;;;;4.05;2.30;;;;;;;20.13;20.24;98626.69;7355180;19;20014;-76
2023/03/01 08:31:57;;;;;;;5.97;2.58;;;;;;;20.58;20.28;98621.84;7362231;19;20031;-76
2023/03/01 08:34:21;;;;;;;5.25;2.63;;;;;;;20.92;19.72;98623.72;7362874;19;20011;-76
2023/03/01 08:36:46;;;;;;;2.53;2.22;;;;;;;21.27;19.72;98619.97;7353666;19;20014;-77
2023/03/01 08:39:14;;;;;;;6.70;2.38;;;;;;;20.59;18.84;98632.50;7352464;19;20002;-68
2023/03/01 08:41:40;;;;;;;4.40;2.38;;;;;;;20.82;19.07;98628.66;7349693;19;20015;-68
2023/03/01 08:44:04;;;;;;;6.40;2.80;;;;;;;20.95;19.19;98623.34;7347637;19;20074;-68
2023/03/01 08:46:32;;;;;;;3.85;2.75;;;;;;;20.75;18.68;98635.94;7346787;19;20067;-68
2023/03/01 08:48:57;;;;;;;4.97;2.80;;;;;;;21.17;18.76;98624.91;7347490;19;20077;-69
2023/03/01 08:51:22;;;;;;;4.32;3.08;;;;;;;20.57;18.17;98637.25;7345558;19;20010;-69
2023/03/01 08:53:47;;;;;;;8.23;2.83;;;;;;;20.20;18.43;98634.88;7345215;19;20014;-69
2023/03/01 08:56:12;;;;;;;2.70;2.50;;;;;;;20.31;18.45;98628.94;7343680;19;20019;-68
2023/03/01 08:58:39;;;;;;;5.97;2.90;;;;;;;20.55;18.84;98638.50;7344300;19;20023;-69
2023/03/01 09:01:09;;;;;;;5.25;3.60;;;;;;;21.03;19.00;98642.13;7343404;19;20021;-67
2023/03/01 09:03:33;;;;;;;9.65;3.70;;;;;;;20.71;19.19;98642.78;7345856;19;20007;-69
2023/03/01 09:06:03;;;;;;;6.18;4.32;;;;;;;19.68;20.06;98646.00;7344622;19;20021;-69
2023/03/01 09:08:28;;;;;;;7.88;3.92;;;;;;;19.35;19.85;98640.22;7346290;19;20007;-68
2023/03/01 09:10:52;;;;;;;5.88;3.13;;;;;;;20.01;19.15;98635.53;7344415;19;20013;-69
2023/03/01 09:13:17;;;;;;;5.80;2.90;;;;;;;20.44;18.71;98648.00;7342201;19;20019;-68
2023/03/01 09:15:41;;;;;;;5.70;2.78;;;;;;;19.70;18.88;98644.81;7344286;19;20019;-70
2023/03/01 09:18:06;;;;;;;5.30;2.72;;;;;;;17.95;20.17;98646.41;7345608;19;20013;-69
2023/03/01 09:20:32;;;;;;;7.05;2.92;;;;;;;16.99;20.13;98641.41;7342123;19;20023;-69
2023/03/01 09:22:57;;;;;;;10.05;2.45;;;;;;;17.38;20.98;98644.88;7345653;19;20070;-70
2023/03/01 09:25:21;;;;;;;5.32;2.72;;;;;;;15.94;21.26;98642.41;7343965;19;20026;-68
2023/03/01 09:27:46;;;;;;;5.05;2.75;;;;;;;16.74;21.37;98637.94;7344022;19;20014;-70
2023/03/01 09:30:11;;;;;;;6.32;2.80;;;;;;;17.19;20.60;98650.72;7341679;19;20401;-68
2023/03/01 09:32:36;;;;;;;6.55;2.55;;;;;;;17.42;21.20;98650.78;7343915;19;20006;-68
2023/03/01 09:35:03;;;;;;;6.00;3.33;;;;;;;17.12;21.75;98646.22;7343464;19;20014;-69
2023/03/01 09:37:28;;;;;;;4.43;2.40;;;;;;;16.94;21.86;98639.22;7343827;19;20337;-69
2023/03/01 09:39:52;;;;;;;5.70;2.72;;;;;;;15.97;21.64;98640.22;7342365;19;20428;-69
2023/03/01 09:42:17;;;;;;;3.95;2.42;;;;;;;15.93;22.35;98646.09;7343632;19;20027;-69
2023/03/01 09:44:48;;;;;;;9.63;2.42;;;;;;;14.05;23.17;98646.31;7343000;19;20034;-70
2023/03/01 09:47:22;;;;;;;3.50;2.00;;;;;;;14.63;23.78;98647.56;7343216;19;20482;-68
2023/03/01 09:50:12;;;;;;;5.22;1.95;;;;;;;15.22;23.01;98641.28;7343763;19;20467;-68
2023/03/01 09:53:03;;;;;;;3.72;2.25;;;;;;;16.08;21.32;98649.81;7343675;19;20022;-68
2023/03/01 09:55:41;;;;;;;6.15;2.92;;;;;;;14.12;22.87;98646.50;7344291;19;20026;-73
2023/03/01 09:58:27;;;;;;;3.85;2.38;;;;;;;13.15;24.18;98651.81;7352308;19;20014;-69
2023/03/01 10:00:51;;;;;;;4.45;2.00;;;;;;;11.64;26.09;98666.09;7356540;19;20024;-71
2023/03/01 10:03:23;;;;;;;3.00;1.90;;;;;;;12.81;25.34;98669.41;7359984;19;20015;-69
2023/03/01 10:06:20;;;;;;;6.00;3.13;;;;;;;13.90;24.54;98663.94;7352643;19;20086;-68
2023/03/01 10:08:53;;;;;;;5.65;2.75;;;;;;;15.72;23.27;98660.03;7348657;19;20799;-69
2023/03/01 10:11:25;;;;;;;3.90;2.67;;;;;;;15.71;23.16;98666.41;7349695;19;20014;-70
2023/03/01 10:14:05;;;;;;;5.20;3.17;;;;;;;14.67;24.08;98667.72;7345862;19;20018;-70
2023/03/01 10:17:08;;;;;;;6.35;3.20;;;;;;;14.20;25.49;98670.72;7352574;19;20015;-69
2023/03/01 10:19:36;;;;;;;4.80;2.83;;;;;;;12.76;24.96;98683.22;7350755;19;20016;-68
2023/03/01 10:22:11;;;;;;;4.53;2.95;;;;;;;11.32;26.09;98678.00;7350400;19;20090;-69
2023/03/01 10:24:36;;;;;;;6.43;2.63;;;;;;;10.48;27.87;98686.28;7350303;19;20038;-71
2023/03/01 10:27:07;;;;;;;4.07;2.30;;;;;;;9.34;29.41;98695.88;7348538;19;20130;-68
2023/03/01 10:29:45;;;;;;;3.45;2.00;;;;;;;8.55;31.59;98696.09;7352319;19;20018;-69
2023/03/01 10:32:11;;;;;;;8.40;2.28;;;;;;;8.18;30.79;98682.13;7350501;19;20453;-67
2023/03/01 10:34:35;;;;;;;8.35;2.83;;;;;;;7.25;31.44;98689.13;7351829;19;20015;-69
2023/03/01 10:37:16;;;;;;;3.47;1.75;;;;;;;6.73;33.28;98687.59;7350322;19;20065;-71
2023/03/01 10:39:57;;;;;;;5.35;1.98;;;;;;;5.82;35.29;98702.69;7353385;19;20520;-72
2023/03/01 10:42:31;;;;;;;2.55;1.63;;;;;;;4.49;36.00;98699.03;7356359;19;20070;-72
2023/03/01 10:44:56;;;;;;;2.60;1.58;;;;;;;3.81;37.30;98706.69;7355112;19;20015;-72
2023/03/01 10:47:27;;;;;;;3.00;2.08;;;;;;;3.82;38.12;98697.84;7354947;19;20010;-77
2023/03/01 10:49:51;;;;;;;2.88;1.63;;;;;;;3.44;38.49;98691.31;7351094;19;20034;-75
2023/03/01 10:52:20;;;;;;;4.30;2.25;;;;;;;3.64;38.67;98696.25;7349540;19;20018;-70
2023/03/01 10:54:52;;;;;;;6.32;2.63;;;;;;;3.32;38.66;98699.91;7348020;19;20014;-71
2023/03/01 10:57:37;;;;;;;3.17;1.65;;;;;;;3.31;38.40;98698.22;7351752;19;20015;-69
2023/03/01 11:00:23;;;;;;;;;;;;;;;3.37;38.59;98700.50;7353436;19;20549;-70
2023/03/01 11:03:09;;;;;;;12.27;2.67;;;;;;;3.16;39.29;98711.31;7349515;19;19949;-71
2023/03/01 11:05:34;;;;;;;2.80;1.30;;;;;;;3.02;39.75;98711.25;7348083;19;20062;-78
2023/03/01 11:08:01;;;;;;;2.63;1.58;;;;;;;2.85;40.10;98700.78;7351390;19;20396;-72
2023/03/01 11:10:29;;;;;;;2.97;2.00;;;;;;;2.74;40.60;98708.44;7350787;19;20018;-75
2023/03/01 11:13:16;;;;;;;3.08;1.45;;;;;;;2.68;40.55;98706.16;7348839;19;20026;-73
2023/03/01 11:15:42;;;;;;;3.13;1.40;;;;;;;2.03;41.32;98706.06;7348814;19;20013;-73
2023/03/01 11:18:20;;;;;;;2.35;1.75;;;;;;;1.70;42.02;98695.50;7349668;19;20082;-73
2023/03/01 11:20:45;;;;;;;3.03;1.60;;;;;;;1.40;42.56;98697.91;7349970;19;20015;-73
2023/03/01 11:23:14;;;;;;;4.97;1.83;;;;;;;1.23;43.03;98718.91;7348846;19;20030;-74
2023/03/01 11:26:00;;;;;;;3.53;1.50;;;;;;;1.19;43.39;98716.47;7350952;19;20002;-76
2023/03/01 11:28:27;;;;;;;3.15;1.90;;;;;;;0.87;44.18;98716.25;7350446;19;20062;-73
2023/03/01 11:30:55;;;;;;;4.93;2.00;;;;;;;0.59;43.75;98710.56;7347327;19;20018;-74
2023/03/01 11:33:28;;;;;;;1.80;1.33;;;;;;;0.39;44.48;98719.34;7347277;19;20414;-72
2023/03/01 11:36:02;;;;;;;1.95;1.63;;;;;;;0.63;44.83;98717.38;7345534;19;20013;-75
2023/03/01 11:38:32;;;;;;;5.03;1.63;;;;;;;0.52;44.95;98717.03;7344932;19;20401;-70
2023/03/01 11:41:18;;;;;;;2.45;1.73;;;;;;;0.73;44.39;98716.88;7348781;19;20320;-80